Latest Weather Observations for Coen Airport

IDQ60801

Issued at 3:05 pm EST Thursday 27 November 2014 (issued every 30 minutes, with the page automatically refreshed every 10 minutes)

About weather observations | Map of weather stations | Latest weather observations for QLD | Other Formats
Station Details ID: 027073 Name: COEN AIRPORT Lat: -13.76 Lon: 143.12 Height: 159.3 m
Data from the previous 72 hours. | See also: Recent months at Coen Airport
Date/Time
EST
Temp
°C
App
Temp
°C
Dew
Point
Rel
Hum
%
Delta-T
°C
Wind Press
QNH
hPa
Press
MSL
hPa
Rain
since 9 am
mm
Dir
 
Spd
km/h
Gust
km/h
Spd
kts
Gust
kts
27/03:00pm 32.9 31.1 15.4 35 11.0 NE 19 32 10 17 1008.4 - 0.0
27/02:30pm 33.6 32.2 16.5 36 10.9 NE 19 33 10 18 1008.8 - 0.0
27/02:00pm 33.3 31.7 16.6 36 10.6 ENE 20 35 11 19 1009.0 - 0.0
27/01:30pm 33.5 31.9 16.4 36 10.9 ENE 20 41 11 22 1009.3 - 0.0
27/01:00pm 33.3 31.0 15.8 35 11.0 ENE 22 35 12 19 1009.5 - 0.0
27/12:30pm 33.4 30.7 17.5 38 10.3 NNE 28 35 15 19 1009.9 - 0.0
27/12:00pm 33.2 31.2 17.4 39 10.2 ENE 24 33 13 18 1010.3 1009.3 0.0
27/11:30am 32.8 30.3 16.2 37 10.5 NE 24 37 13 20 1010.7 - 0.0
27/11:00am 31.8 31.0 18.4 45 8.7 ESE 20 43 11 23 1011.1 - 0.0
27/10:30am 32.1 30.9 17.6 42 9.3 E 20 32 11 17 1011.2 - 0.0
27/10:00am 31.6 29.5 16.3 39 9.7 E 22 35 12 19 1011.4 - 0.0
27/09:30am 31.1 29.3 17.0 42 9.0 ENE 22 32 12 17 1011.5 - 0.0
27/09:00am 30.6 29.3 17.3 45 8.5 ENE 20 28 11 15 1011.4 1010.5 0.0
27/08:30am 29.2 29.2 19.8 57 6.2 E 19 32 10 17 1011.1 - 0.0
27/08:00am 29.6 30.9 20.2 57 6.2 E 13 24 7 13 1011.1 - 0.0
27/07:30am 27.9 29.6 20.2 63 5.1 E 11 17 6 9 1010.8 - 0.0
27/07:00am 26.5 29.5 20.8 71 3.8 ENE 6 13 3 7 1010.8 - 0.0
27/06:30am 24.6 28.7 20.7 79 2.6 CALM 0 0 0 0 1010.5 - 0.0
27/06:00am 24.0 26.7 20.3 80 2.4 ENE 6 7 3 4 1010.3 1009.4 0.0
27/05:30am 22.6 25.9 19.2 81 2.2 CALM 0 7 0 4 1010.3 - 0.0
27/05:00am 23.4 27.1 20.0 81 2.2 CALM 0 6 0 3 1009.9 - 0.0
27/04:30am 23.3 27.1 20.1 82 2.1 CALM 0 0 0 0 1009.8 - 0.0
27/04:00am 23.2 26.8 19.8 81 2.2 CALM 0 0 0 0 1009.5 - 0.0
27/03:30am 23.2 26.8 19.8 81 2.2 CALM 0 0 0 0 1009.4 - 0.0
27/03:00am 23.1 25.8 19.5 80 2.3 S 4 7 2 4 1009.3 1008.4 0.0
27/02:30am 23.9 27.5 19.8 78 2.7 CALM 0 0 0 0 1009.3 - 0.0
27/02:00am 24.4 28.1 19.9 76 2.9 CALM 0 0 0 0 1009.4 - 0.0
27/01:30am 24.5 27.9 19.3 73 3.4 CALM 0 0 0 0 1009.5 - 0.0
27/01:00am 25.0 28.1 19.4 71 3.6 E 2 7 1 4 1009.8 - 0.0
27/12:30am 25.6 28.7 19.5 69 4.0 E 2 7 1 4 1009.9 - 0.0
27/12:00am 25.6 28.1 19.9 70 3.7 ENE 6 11 3 6 1010.1 1009.1 0.0
 
Date/Time
EST
Temp
°C
App
Temp
°C
Dew
Point
Rel
Hum
%
Delta-T
°C
Wind Press
QNH
hPa
Press
MSL
hPa
Rain
since 9 am
mm
Dir
 
Spd
km/h
Gust
km/h
Spd
kts
Gust
kts
26/11:30pm 25.8 29.5 19.9 70 3.9 CALM 0 6 0 3 1010.5 - 0.0
26/11:00pm 26.1 28.1 20.0 69 4.0 ENE 9 17 5 9 1010.6 - 0.0
26/10:30pm 26.0 28.6 20.1 70 3.9 ENE 6 9 3 5 1010.8 - 0.0
26/10:00pm 26.2 28.3 20.1 69 4.0 ENE 9 13 5 7 1010.7 - 0.0
26/09:30pm 26.4 28.7 20.7 71 3.8 ENE 9 15 5 8 1010.5 - 0.0
26/09:00pm 26.3 28.7 20.8 71 3.6 NE 9 15 5 8 1010.2 1009.2 0.0
26/08:30pm 26.5 28.1 20.8 71 3.8 ENE 13 20 7 11 1009.8 - 0.0
26/08:00pm 26.6 28.6 20.7 70 3.9 ENE 11 26 6 14 1009.5 - 0.0
26/07:30pm 26.8 28.3 20.6 69 4.1 ENE 13 26 7 14 1009.4 - 0.0
26/07:00pm 27.2 28.1 20.8 68 4.2 ENE 17 28 9 15 1009.1 - 0.0
26/06:30pm 27.8 27.5 19.6 61 5.4 ENE 20 32 11 17 1008.9 - 0.0
26/06:00pm 28.9 28.3 18.9 54 6.5 E 20 32 11 17 1008.6 1007.6 0.0
26/05:30pm 30.0 29.1 18.1 49 7.7 ENE 20 30 11 16 1008.5 - 0.0
26/05:00pm 30.7 29.9 18.1 47 8.1 ENE 19 32 10 17 1008.4 - 0.0
26/04:30pm 31.4 30.3 17.7 44 8.8 E 20 32 11 17 1008.2 - 0.0
26/04:00pm 32.7 32.1 18.8 43 9.1 E 20 32 11 17 1008.0 - 0.0
26/03:30pm 31.9 31.1 18.5 45 8.7 E 20 30 11 16 1008.2 - 0.0
26/03:00pm 32.6 31.4 17.6 40 9.7 ENE 20 33 11 18 1008.2 1007.1 0.0
26/02:30pm 31.2 29.4 17.9 45 8.6 E 24 46 13 25 1008.3 - 0.0
26/02:00pm 33.5 33.0 19.2 43 9.4 ENE 20 35 11 19 1008.4 - 0.0
26/01:30pm 32.7 31.9 18.5 43 9.3 ENE 20 35 11 19 1008.6 - 0.0
26/01:00pm 32.4 30.7 18.2 42 9.2 ENE 24 35 13 19 1008.8 - 0.0
26/12:30pm 33.1 31.3 18.8 42 9.4 E 26 41 14 22 1009.1 - 0.0
26/12:00pm 33.1 32.1 18.8 42 9.4 ENE 22 39 12 21 1009.5 1008.5 0.0
26/11:30am 31.9 31.3 18.8 45 8.6 ENE 20 35 11 19 1009.8 - 0.0
26/11:00am 30.7 29.4 19.1 50 7.6 NE 24 35 13 19 1010.1 - 0.0
26/10:30am 31.8 31.9 19.1 47 8.3 ENE 17 33 9 18 1010.1 - 0.0
26/10:00am 31.9 31.7 19.8 48 8.0 ENE 20 32 11 17 1010.4 - 0.0
26/09:30am 30.9 31.1 20.2 53 7.1 E 19 30 10 16 1010.5 - 0.0
26/09:00am 29.3 29.6 19.6 56 6.4 ENE 17 28 9 15 1010.5 1009.5 0.0
26/08:30am 29.7 29.5 19.4 54 6.8 ENE 19 26 10 14 1010.3 - 0.0
26/08:00am 29.4 30.4 20.3 58 6.0 E 15 20 8 11 1010.1 - 0.0
26/07:30am 27.7 30.5 20.8 66 4.6 NE 7 11 4 6 1009.9 - 0.0
26/07:00am 24.7 29.0 21.2 81 2.3 CALM 0 0 0 0 1009.8 - 0.0
26/06:30am 22.1 25.7 19.8 87 1.5 CALM 0 0 0 0 1009.7 - 0.0
26/06:00am 21.7 25.1 19.3 86 1.5 CALM 0 0 0 0 1009.2 1008.3 0.0
26/05:30am 21.8 25.1 19.2 85 1.7 CALM 0 0 0 0 1008.9 - 0.0
26/05:00am 22.3 25.6 19.1 82 2.0 CALM 0 0 0 0 1008.8 - 0.0
26/04:30am 23.0 26.6 19.8 82 2.1 CALM 0 0 0 0 1008.9 - 0.0
26/04:00am 23.3 25.7 19.7 80 2.3 N 6 7 3 4 1008.6 - 0.0
26/03:30am 24.2 26.6 20.1 78 2.7 N 7 7 4 4 1008.8 - 0.0
26/03:00am 24.8 27.4 20.1 75 3.1 N 6 7 3 4 1008.8 1007.7 0.0
26/02:30am 25.5 27.9 20.1 72 3.5 NE 7 11 4 6 1008.7 - 0.0
26/02:00am 25.5 27.7 20.3 73 3.4 ENE 9 19 5 10 1008.8 - 0.0
26/01:30am 25.5 27.7 20.3 73 3.4 NE 9 15 5 8 1009.2 - 0.0
26/01:00am 25.8 27.6 20.4 72 3.5 ENE 11 20 6 11 1009.5 - 0.0
26/12:30am 25.9 28.1 20.5 72 3.6 ENE 9 17 5 9 1009.8 - 0.0
26/12:00am 25.9 28.5 20.5 72 3.6 NE 7 19 4 10 1010.1 1009.1 0.0
 
Date/Time
EST
Temp
°C
App
Temp
°C
Dew
Point
Rel
Hum
%
Delta-T
°C
Wind Press
QNH
hPa
Press
MSL
hPa
Rain
since 9 am
mm
Dir
 
Spd
km/h
Gust
km/h
Spd
kts
Gust
kts
25/11:30pm 25.8 27.7 20.6 73 3.4 ENE 11 20 6 11 1010.2 - 0.0
25/11:00pm 25.9 26.7 20.7 73 3.4 ENE 17 22 9 12 1010.3 - 0.0
25/10:30pm 26.0 26.8 20.6 72 3.6 ENE 17 24 9 13 1010.2 - 0.0
25/10:00pm 26.0 27.2 20.6 72 3.6 ENE 15 26 8 14 1010.2 - 0.0
25/09:30pm 26.1 26.6 20.9 73 3.4 ENE 19 26 10 14 1010.1 - 0.0
25/09:00pm 25.8 27.9 21.0 75 3.2 ENE 11 17 6 9 1010.0 1009.0 0.0
25/08:30pm 26.0 27.8 21.2 75 3.2 NE 13 24 7 13 1010.1 - 0.0
25/08:00pm 26.3 27.6 20.8 71 3.6 ENE 15 26 8 14 1009.9 - 0.0
25/07:30pm 26.6 28.2 20.7 70 3.9 ENE 13 20 7 11 1009.6 - 0.0
25/07:00pm 26.9 28.1 20.7 69 4.1 ENE 15 22 8 12 1009.1 - 0.0
25/06:30pm 27.5 27.2 20.3 65 4.7 ENE 22 33 12 18 1008.7 - 0.0
25/06:00pm 28.6 27.9 19.5 58 6.0 NE 22 35 12 19 1008.3 1007.3 0.0
25/05:30pm 30.0 29.6 18.8 51 7.3 ENE 19 33 10 18 1008.1 - 0.0
25/05:00pm 30.7 29.2 17.7 45 8.3 ENE 22 33 12 18 1008.0 - 0.0
25/04:30pm 31.6 29.5 17.1 41 9.3 NE 24 32 13 17 1007.9 - 0.0
25/04:00pm 32.0 29.7 16.7 40 9.7 ENE 24 32 13 17 1007.9 - 0.0
25/03:30pm 31.9 30.7 17.4 42 9.3 E 20 32 11 17 1008.0 - 0.0
25/03:00pm 33.1 32.2 18.1 41 9.8 ENE 20 32 11 17 1008.1 1007.1 0.0
25/02:30pm 32.7 31.4 17.3 39 9.9 E 20 32 11 17 1008.3 - 0.0
25/02:00pm 33.0 31.3 17.2 39 10.1 NE 22 35 12 19 1008.4 - 0.0
25/01:30pm 34.4 32.9 17.6 37 10.9 NE 22 43 12 23 1008.5 - 0.0
25/01:00pm 32.5 30.4 17.2 40 9.8 ENE 24 35 13 19 1009.0 - 0.0
25/12:30pm 33.6 32.3 18.1 39 10.1 ENE 22 35 12 19 1009.3 - 0.0
25/12:00pm 32.6 31.1 17.6 40 9.7 NE 22 33 12 18 1009.7 1008.7 0.0
25/11:30am 33.8 32.7 18.7 40 9.9 NE 22 33 12 18 1010.0 - 0.0
25/11:00am 32.3 30.8 17.7 41 9.4 E 22 39 12 21 1010.4 - 0.0
25/10:30am 32.2 31.1 17.7 42 9.4 E 20 32 11 17 1010.6 - 0.0
25/10:00am 31.9 30.4 17.8 43 9.1 ESE 22 39 12 21 1011.0 - 0.0
25/09:30am 31.5 30.4 17.8 44 8.8 E 20 32 11 17 1011.3 - 0.0
25/09:00am 30.4 30.3 18.8 50 7.6 E 17 22 9 12 1011.6 1010.5 0.0
25/08:30am 28.5 28.5 18.9 56 6.2 E 17 26 9 14 1011.6 - 0.0
25/08:00am 28.1 29.3 19.9 61 5.4 ENE 13 19 7 10 1011.5 - 0.0
25/07:30am 26.4 28.9 20.3 69 4.0 NNW 7 11 4 6 1011.2 - 0.0
25/07:00am 24.2 28.1 20.3 79 2.5 CALM 0 9 0 5 1011.1 - 0.0
25/06:30am 22.2 26.0 20.1 88 1.4 CALM 0 0 0 0 1010.7 - 0.0
25/06:00am 20.9 22.9 19.2 90 1.1 SSE 7 11 4 6 1010.4 1009.5 0.0
25/05:30am 20.7 24.0 19.0 90 1.1 CALM 0 0 0 0 1010.2 - 0.0
25/05:00am 20.8 24.0 18.9 89 1.2 CALM 0 0 0 0 1009.8 - 0.0
25/04:30am 21.2 24.7 19.5 90 1.1 CALM 0 0 0 0 1009.6 - 0.0
25/04:00am 21.2 24.6 19.3 89 1.2 CALM 0 0 0 0 1009.8 - 0.0
25/03:30am 21.5 24.9 19.4 88 1.3 CALM 0 0 0 0 1009.7 - 0.0
25/03:00am 21.5 24.9 19.4 88 1.3 CALM 0 0 0 0 1009.8 1008.8 0.0
25/02:30am 21.5 24.8 19.2 87 1.5 CALM 0 0 0 0 1009.9 - 0.0
25/02:00am 22.2 25.5 19.9 87 1.5 E 2 6 1 3 1010.0 - 0.0
25/01:30am 22.3 25.5 20.4 89 1.2 W 4 7 2 4 1010.4 - 0.0
25/01:00am 22.0 25.2 19.7 87 1.5 NE 2 7 1 4 1010.6 - 0.0
25/12:30am 22.2 25.5 19.2 83 1.9 CALM 0 0 0 0 1011.1 - 0.0
25/12:00am 22.8 26.4 19.8 83 1.9 CALM 0 0 0 0 1011.5 1010.4 0.0
 
Date/Time
EST
Temp
°C
App
Temp
°C
Dew
Point
Rel
Hum
%
Delta-T
°C
Wind Press
QNH
hPa
Press
MSL
hPa
Rain
since 9 am
mm
Dir
 
Spd
km/h
Gust
km/h
Spd
kts
Gust
kts
24/11:30pm 23.1 26.7 19.7 81 2.2 CALM 0 0 0 0 1011.8 - 0.0
24/11:00pm 24.1 27.6 20.4 80 2.4 E 2 7 1 4 1012.1 - 0.0
24/10:30pm 24.3 28.0 20.0 77 2.8 CALM 0 0 0 0 1012.1 - 0.0
24/10:00pm 25.1 28.0 20.6 76 3.0 ENE 6 11 3 6 1012.0 - 0.0
24/09:30pm 25.4 28.1 20.6 75 3.2 NE 7 13 4 7 1011.3 - 0.0
24/09:00pm 25.5 27.7 20.5 74 3.3 ENE 9 13 5 7 1011.1 1010.1 0.0
24/08:30pm 25.6 27.8 20.4 73 3.4 ENE 9 17 5 9 1011.0 - 0.0
24/08:00pm 25.7 27.3 20.0 71 3.7 NE 11 17 6 9 1010.4 - 0.0
24/07:30pm 26.2 26.7 20.1 69 4.0 ENE 17 26 9 14 1010.3 - 0.0
24/07:00pm 26.7 27.6 19.3 64 4.8 NE 13 20 7 11 1009.9 - 0.0
24/06:30pm 27.3 27.5 18.6 59 5.6 NE 15 22 8 12 1009.6 - 0.0
24/06:00pm 28.1 27.9 18.5 56 6.2 NE 17 26 9 14 1009.4 1008.4 0.0
24/05:30pm 28.7 27.4 18.2 53 6.7 ENE 22 35 12 19 1009.2 - 0.0
24/05:00pm 29.8 28.1 17.3 47 8.0 ENE 22 35 12 19 1009.2 - 0.0
24/04:30pm 30.4 28.1 17.5 46 8.2 NE 26 35 14 19 1009.2 - 0.0
24/04:00pm 31.4 29.7 18.0 44 8.7 NE 24 37 13 20 1009.1 - 0.0
24/03:30pm 31.4 29.1 15.8 39 9.8 ENE 22 35 12 19 1009.2 - 0.0

Other Formats:

Comma delimited format used in spreadsheet applications
http://www.bom.gov.au/fwo/IDQ60801/IDQ60801.94183.axf

JavaScript Object Notation format (JSON) in row-major order
http://www.bom.gov.au/fwo/IDQ60801/IDQ60801.94183.json